Time;durP1;ratioP1;P1;durP2;ratioP2;P2;SDS_P1;SDS_P2;PMS_P1;PMS_P2;Temp;Humidity;BMP_temperature;BMP_pressure;BME280_temperature;BME280_humidity;BME280_pressure;Samples;Min_cycle;Max_cycle;Signal;HPM_P1;HPM_P2
2022/12/13 00:02:06;;;;;;;;;;;;;;;27.82;26.75;100144.06;5017999;28;1096;-22
2022/12/13 00:04:31;;;;;;;;;;;;;;;27.59;26.64;100151.44;5017031;28;1132;-22
2022/12/13 00:06:57;;;;;;;;;;;;;;;27.06;28.22;100146.59;5017033;28;1129;-22
2022/12/13 00:09:22;;;;;;;;;;;;;;;26.86;28.46;100144.53;5005032;28;1145;-22
2022/12/13 00:11:48;;;;;;;;;;;;;;;27.24;28.04;100146.88;5017627;28;1125;-22
2022/12/13 00:14:14;;;;;;;;;;;;;;;27.67;27.60;100157.69;5017703;28;1890;-22
2022/12/13 00:16:39;;;;;;;;;;;;;;;28.01;26.83;100155.16;5017876;28;1248;-22
2022/12/13 00:19:05;;;;;;;;;;;;;;;27.70;27.27;100152.75;5017776;28;1159;-22
2022/12/13 00:21:30;;;;;;;;;;;;;;;27.44;28.01;100159.69;5018056;28;1143;-22
2022/12/13 00:23:56;;;;;;;;;;;;;;;27.34;28.11;100165.44;5013922;28;2331;-22
2022/12/13 00:26:22;;;;;;;;;;;;;;;27.53;27.75;100167.63;5018196;28;1131;-23
2022/12/13 00:28:49;;;;;;;;;;;;;;;27.75;27.24;100165.66;5017579;28;1471;-22
2022/12/13 00:31:15;;;;;;;;;;;;;;;27.69;27.32;100164.63;5017276;28;1140;-22
2022/12/13 00:33:40;;;;;;;;;;;;;;;27.29;28.20;100167.06;5016992;28;1902;-22
2022/12/13 00:36:06;;;;;;;;;;;;;;;27.06;28.28;100158.19;5017145;28;1202;-22
2022/12/13 00:38:32;;;;;;;;;;;;;;;27.26;28.08;100162.88;5017806;28;1183;-22
2022/12/13 00:40:57;;;;;;;;;;;;;;;27.61;27.26;100159.34;5017307;28;1100;-22
2022/12/13 00:43:22;;;;;;;;;;;;;;;28.20;26.99;100153.53;5016842;28;1532;-22
2022/12/13 00:45:47;;;;;;;;;;;;;;;27.53;27.44;100148.72;5005390;28;1135;-22
2022/12/13 00:48:13;;;;;;;;;;;;;;;26.97;28.77;100137.75;5015441;28;1144;-22
2022/12/13 00:50:39;;;;;;;;;;;;;;;26.96;29.38;100136.09;5016973;28;1069;-22
2022/12/13 00:53:04;;;;;;;;;;;;;;;27.29;28.91;100131.97;5017512;28;1969;-22
2022/12/13 00:55:29;;;;;;;;;;;;;;;27.77;27.30;100133.03;5016085;28;1872;-22
2022/12/13 00:57:55;;;;;;;;;;;;;;;28.02;28.02;100127.91;5017102;28;1116;-22
2022/12/13 01:00:20;;;;;;;;;;;;;;;27.63;28.79;100117.56;5016823;28;1183;-22
2022/12/13 01:02:45;;;;;;;;;;;;;;;26.98;29.73;100115.97;5017080;28;1084;-22
2022/12/13 01:05:11;;;;;;;;;;;;;;;27.30;29.13;100120.97;5016923;28;1180;-22
2022/12/13 01:07:36;;;;;;;;;;;;;;;27.65;28.56;100124.63;5016740;28;1116;-22
2022/12/13 01:10:03;;;;;;;;;;;;;;;28.03;28.65;100118.75;5016919;28;1204;-22
2022/12/13 01:12:28;;;;;;;;;;;;;;;27.86;28.80;100119.13;5016460;28;1152;-22
2022/12/13 01:14:53;;;;;;;;;;;;;;;27.07;30.45;100116.69;5016303;28;1902;-22
2022/12/13 01:17:18;;;;;;;;;;;;;;;26.96;30.35;100115.31;5016342;28;1160;-22
2022/12/13 01:19:44;;;;;;;;;;;;;;;27.28;30.34;100122.22;5016856;28;1222;-22
2022/12/13 01:22:10;;;;;;;;;;;;;;;27.66;30.42;100129.84;5016533;28;1163;-22
2022/12/13 01:24:36;;;;;;;;;;;;;;;28.17;29.37;100116.94;5016650;28;2525;-22
2022/12/13 01:27:01;;;;;;;;;;;;;;;28.01;29.90;100120.00;5016597;28;1183;-22
2022/12/13 01:29:26;;;;;;;;;;;;;;;27.23;31.27;100122.78;5016494;28;1104;-22
2022/12/13 01:31:52;;;;;;;;;;;;;;;27.17;31.70;100124.44;5016012;28;1140;-22
2022/12/13 01:34:17;;;;;;;;;;;;;;;27.50;31.19;100117.53;5016460;28;1997;-22
2022/12/13 01:36:43;;;;;;;;;;;;;;;27.97;30.37;100103.38;5015883;28;1183;-22
2022/12/13 01:39:09;;;;;;;;;;;;;;;27.83;28.76;100116.00;5016514;28;1211;-22
2022/12/13 01:41:34;;;;;;;;;;;;;;;27.17;31.31;100120.88;5016101;28;1156;-22
2022/12/13 01:44:20;;;;;;;;;;;;;;;27.02;31.76;100119.16;5015549;28;1124;-22
2022/12/13 01:46:45;;;;;;;;;;;;;;;27.32;31.66;100101.84;4992622;28;1263;-21
2022/12/13 01:49:12;;;;;;;;;;;;;;;27.77;29.34;100111.41;5005369;28;1180;-22
2022/12/13 01:51:41;;;;;;;;;;;;;;;27.97;30.47;100115.03;5014903;28;1029;-22
2022/12/13 01:54:08;;;;;;;;;;;;;;;27.83;30.42;100116.84;5010959;28;2296;-22
2022/12/13 01:56:35;;;;;;;;;;;;;;;27.06;31.60;100116.88;5009339;28;1132;-22
2022/12/13 01:59:00;;;;;;;;;;;;;;;27.02;31.46;100129.94;5002335;28;1144;-22
2022/12/13 02:01:26;;;;;;;;;;;;;;;27.46;30.86;100124.38;5015156;28;1212;-22
2022/12/13 02:03:51;;;;;;;;;;;;;;;27.95;30.30;100119.78;5016416;28;1145;-22
2022/12/13 02:06:37;;;;;;;;;;;;;;;27.87;30.53;100118.13;5014722;28;1243;-22
2022/12/13 02:09:03;;;;;;;;;;;;;;;27.35;30.95;100112.25;4999311;28;1553;-22
2022/12/13 02:11:28;;;;;;;;;;;;;;;26.99;31.89;100123.03;5006368;28;1136;-22
2022/12/13 02:13:53;;;;;;;;;;;;;;;27.19;31.36;100138.56;5015711;28;1965;-22
2022/12/13 02:16:22;;;;;;;;;;;;;;;27.69;30.88;100144.88;5018292;28;1171;-22
2022/12/13 02:19:05;;;;;;;;;;;;;;;28.17;30.28;100143.13;5021660;28;1100;-22
2022/12/13 02:21:49;;;;;;;;;;;;;;;27.73;30.43;100138.84;5007301;28;954;-22
2022/12/13 02:24:22;;;;;;;;;;;;;;;26.97;31.31;100138.59;5013021;28;2258;-22
2022/12/13 02:26:53;;;;;;;;;;;;;;;27.11;30.74;100144.13;5014913;28;1144;-23
2022/12/13 02:29:18;;;;;;;;;;;;;;;27.49;30.02;100138.28;5015091;28;1149;-22
2022/12/13 02:32:13;;;;;;;;;;;;;;;27.76;28.93;100145.69;5015626;28;1100;-22
2022/12/13 02:34:40;;;;;;;;;;;;;;;27.92;28.58;100168.00;4994776;28;1969;-22
2022/12/13 02:37:14;;;;;;;;;;;;;;;27.20;30.08;100160.97;5014919;28;1167;-22
2022/12/13 02:39:40;;;;;;;;;;;;;;;27.25;29.97;100166.63;5016027;28;1195;-22
2022/12/13 02:42:19;;;;;;;;;;;;;;;27.55;29.59;100171.78;5015824;28;1069;-22
2022/12/13 02:44:55;;;;;;;;;;;;;;;27.94;28.84;100172.19;5011935;28;1132;-23
2022/12/13 02:47:21;;;;;;;;;;;;;;;27.66;28.80;100164.97;5006385;28;1157;-22
2022/12/13 02:49:47;;;;;;;;;;;;;;;27.01;30.12;100172.28;5016040;28;1140;-22
2022/12/13 02:52:13;;;;;;;;;;;;;;;27.09;29.97;100168.59;5015695;28;1147;-22
2022/12/13 02:54:40;;;;;;;;;;;;;;;27.41;29.44;100170.06;5004788;28;1933;-22
2022/12/13 02:57:25;;;;;;;;;;;;;;;27.77;28.01;100163.59;4997822;28;1244;-23
2022/12/13 02:59:50;;;;;;;;;;;;;;;27.74;28.59;100147.78;5010403;28;1118;-22
2022/12/13 03:02:18;;;;;;;;;;;;;;;27.62;28.94;100131.28;5019612;28;1180;-22
2022/12/13 03:07:51;;;;;;;;;;;;;;;27.37;29.04;100131.81;5019049;28;970;-22
2022/12/13 03:10:37;;;;;;;;;;;;;;;27.61;27.90;100133.16;5017170;28;1038;-22
2022/12/13 03:15:48;;;;;;;;;;;;;;;27.35;28.69;100144.66;5017666;28;1227;-22
2022/12/13 03:18:15;;;;;;;;;;;;;;;27.16;28.93;100174.03;5019012;28;1191;-22
2022/12/13 03:20:47;;;;;;;;;;;;;;;27.33;28.72;100166.47;5016017;28;1220;-22
2022/12/13 03:23:12;;;;;;;;;;;;;;;27.67;28.21;100176.63;5007417;28;1113;-22
2022/12/13 03:25:38;;;;;;;;;;;;;;;28.05;27.43;100195.09;5015198;28;2641;-22
2022/12/13 03:28:03;;;;;;;;;;;;;;;27.65;27.98;100194.88;5017828;28;1172;-22
2022/12/13 03:30:29;;;;;;;;;;;;;;;27.04;29.06;100195.38;5018637;28;1199;-22
2022/12/13 03:32:55;;;;;;;;;;;;;;;27.02;29.26;100179.38;5018291;28;1975;-22
2022/12/13 03:35:20;;;;;;;;;;;;;;;27.30;28.33;100176.84;5018382;28;1191;-22
2022/12/13 03:37:45;;;;;;;;;;;;;;;27.55;28.29;100165.53;5017498;28;1239;-22
2022/12/13 03:40:10;;;;;;;;;;;;;;;27.85;27.66;100158.03;5018479;28;1084;-22
2022/12/13 03:42:36;;;;;;;;;;;;;;;27.63;27.92;100158.09;5018570;28;1085;-22
2022/12/13 03:45:01;;;;;;;;;;;;;;;27.16;28.52;100163.25;5017041;28;1128;-22
2022/12/13 03:47:26;;;;;;;;;;;;;;;27.08;28.60;100160.69;5010573;28;1235;-22
2022/12/13 03:49:52;;;;;;;;;;;;;;;27.40;28.08;100171.91;5012342;28;1132;-22
2022/12/13 03:52:17;;;;;;;;;;;;;;;27.60;27.88;100174.72;5004954;28;1073;-22
2022/12/13 03:54:42;;;;;;;;;;;;;;;27.82;27.35;100180.06;5007854;28;2394;-22
2022/12/13 03:57:07;;;;;;;;;;;;;;;27.20;28.36;100186.13;5015669;28;1140;-22
2022/12/13 03:59:33;;;;;;;;;;;;;;;26.87;29.03;100184.81;5018209;28;1116;-22
2022/12/13 04:01:58;;;;;;;;;;;;;;;26.85;29.23;100188.75;5018322;28;1104;-22
2022/12/13 04:04:23;;;;;;;;;;;;;;;27.14;28.84;100195.84;5017727;28;1120;-22
2022/12/13 04:06:49;;;;;;;;;;;;;;;27.35;28.64;100201.38;5015810;28;1133;-22
2022/12/13 04:09:14;;;;;;;;;;;;;;;27.56;27.84;100192.34;5017531;28;1134;-22
2022/12/13 04:14:23;;;;;;;;;;;;;;;27.31;27.71;100189.31;5003923;28;1918;-22
2022/12/13 04:16:49;;;;;;;;;;;;;;;27.35;27.84;100187.88;5017899;28;1116;-22
2022/12/13 04:19:15;;;;;;;;;;;;;;;27.46;27.36;100200.00;5017251;28;1104;-23
2022/12/13 04:21:40;;;;;;;;;;;;;;;27.65;27.10;100198.44;5016953;28;1152;-22
2022/12/13 04:24:05;;;;;;;;;;;;;;;27.22;27.78;100205.69;5016207;28;2505;-22
2022/12/13 04:26:31;;;;;;;;;;;;;;;26.39;30.24;100209.69;5017718;28;1214;-22
2022/12/13 04:28:56;;;;;;;;;;;;;;;26.38;30.73;100208.00;5017205;28;1120;-23
2022/12/13 04:31:21;;;;;;;;;;;;;;;26.73;30.15;100215.41;5017614;28;1199;-22
2022/12/13 04:33:47;;;;;;;;;;;;;;;26.96;29.49;100217.88;5017316;28;1914;-22
2022/12/13 04:36:18;;;;;;;;;;;;;;;27.16;29.07;100217.25;5016956;28;1175;-22
2022/12/13 04:38:44;;;;;;;;;;;;;;;27.33;29.06;100219.63;5017547;28;1151;-22
2022/12/13 04:41:12;;;;;;;;;;;;;;;27.62;28.00;100228.56;5016648;28;1132;-22
2022/12/13 04:43:37;;;;;;;;;;;;;;;27.54;28.18;100223.31;5015856;28;1152;-22
2022/12/13 04:46:03;;;;;;;;;;;;;;;27.26;28.77;100220.44;5016658;28;869;-22
2022/12/13 04:48:28;;;;;;;;;;;;;;;27.16;28.92;100224.53;5017593;28;1136;-23
2022/12/13 04:50:53;;;;;;;;;;;;;;;27.12;28.50;100229.47;5017151;28;1279;-22
2022/12/13 04:53:18;;;;;;;;;;;;;;;26.70;26.18;100229.28;5016905;28;1969;-22
2022/12/13 04:55:44;;;;;;;;;;;;;;;26.93;25.82;100237.19;5017367;28;2535;-21
2022/12/13 04:58:09;;;;;;;;;;;;;;;26.99;26.20;100238.28;5016739;28;1152;-21
2022/12/13 05:00:34;;;;;;;;;;;;;;;26.86;26.32;100241.69;5017302;28;1151;-22
2022/12/13 05:03:00;;;;;;;;;;;;;;;27.05;27.17;100242.06;5016578;28;1151;-21
2022/12/13 05:05:25;;;;;;;;;;;;;;;27.04;27.15;100243.13;5016748;28;1223;-21
2022/12/13 05:07:50;;;;;;;;;;;;;;;27.10;27.36;100247.72;5017039;28;942;-21
2022/12/13 05:10:16;;;;;;;;;;;;;;;27.04;27.44;100248.50;5016429;28;1156;-20
2022/12/13 05:12:41;;;;;;;;;;;;;;;27.25;27.36;100250.34;5016911;28;1159;-21
2022/12/13 05:15:06;;;;;;;;;;;;;;;27.33;27.34;100246.66;5016824;28;1898;-21
2022/12/13 05:17:32;;;;;;;;;;;;;;;27.44;26.76;100247.97;5016532;28;1237;-22
2022/12/13 05:19:57;;;;;;;;;;;;;;;27.60;27.05;100249.53;5016582;28;1152;-22
2022/12/13 05:22:22;;;;;;;;;;;;;;;27.19;27.63;100251.97;5016714;28;1143;-21
2022/12/13 05:24:48;;;;;;;;;;;;;;;27.09;27.91;100252.28;5016492;28;2649;-21
2022/12/13 05:27:13;;;;;;;;;;;;;;;27.16;28.10;100252.34;5015235;28;1132;-22
2022/12/13 05:29:38;;;;;;;;;;;;;;;27.39;27.91;100251.28;5016926;28;1223;-22
2022/12/13 05:32:04;;;;;;;;;;;;;;;27.50;27.95;100266.09;5016597;28;1092;-21
2022/12/13 05:34:29;;;;;;;;;;;;;;;27.50;27.95;100266.94;5015876;28;1981;-31
2022/12/13 05:36:54;;;;;;;;;;;;;;;27.64;27.66;100272.44;5016128;28;1269;-27
2022/12/13 05:39:20;;;;;;;;;;;;;;;27.25;27.92;100278.19;5016776;28;1156;-32
2022/12/13 05:41:45;;;;;;;;;;;;;;;27.32;27.84;100288.19;5016563;28;1045;-32
2022/12/13 05:44:12;;;;;;;;;;;;;;;27.55;27.06;100281.72;5015802;28;1199;-32
2022/12/13 05:46:37;;;;;;;;;;;;;;;27.50;27.48;100293.09;5006251;28;962;-28
2022/12/13 05:49:02;;;;;;;;;;;;;;;26.62;28.45;100300.41;5003960;28;1140;-30
2022/12/13 05:51:28;;;;;;;;;;;;;;;26.03;29.55;100306.50;5016326;28;1179;-33
2022/12/13 05:53:53;;;;;;;;;;;;;;;26.21;29.11;100310.66;5016110;28;1963;-29
2022/12/13 05:56:18;;;;;;;;;;;;;;;26.51;28.96;100309.81;5016033;28;1144;-32
2022/12/13 05:58:44;;;;;;;;;;;;;;;26.79;28.60;100311.78;5016361;28;1215;-30
2022/12/13 06:01:10;;;;;;;;;;;;;;;27.09;28.28;100314.38;5016691;28;1140;-31
2022/12/13 06:03:35;;;;;;;;;;;;;;;27.41;27.64;100322.13;5016167;28;1172;-32
2022/12/13 06:06:01;;;;;;;;;;;;;;;27.66;27.14;100323.56;5016146;28;1231;-30
2022/12/13 06:08:26;;;;;;;;;;;;;;;27.93;26.82;100337.25;5016415;28;1117;-29
2022/12/13 06:10:55;;;;;;;;;;;;;;;27.69;27.66;100336.72;5016077;28;1227;-31
2022/12/13 06:13:20;;;;;;;;;;;;;;;27.66;27.31;100340.59;5016363;28;1965;-29
2022/12/13 06:15:45;;;;;;;;;;;;;;;27.60;27.81;100349.50;5015692;28;1272;-32
2022/12/13 06:18:11;;;;;;;;;;;;;;;27.60;27.61;100354.91;5016451;28;1393;-29
2022/12/13 06:20:36;;;;;;;;;;;;;;;27.70;27.49;100355.44;5016276;28;1163;-31
2022/12/13 06:23:01;;;;;;;;;;;;;;;27.70;27.39;100360.84;5011979;28;910;-30
2022/12/13 06:25:27;;;;;;;;;;;;;;;28.04;26.69;100352.97;5016140;28;1215;-31
2022/12/13 06:27:52;;;;;;;;;;;;;;;28.05;27.37;100364.59;5015973;28;1204;-32
2022/12/13 06:30:17;;;;;;;;;;;;;;;27.63;28.04;100360.75;5017073;28;1171;-33
2022/12/13 06:32:42;;;;;;;;;;;;;;;27.56;28.07;100375.25;5020102;28;1165;-33
2022/12/13 06:35:08;;;;;;;;;;;;;;;27.71;27.88;100375.19;5018559;28;1914;-29
2022/12/13 06:37:34;;;;;;;;;;;;;;;27.80;27.29;100379.41;5019476;28;1111;-30
2022/12/13 06:39:59;;;;;;;;;;;;;;;27.89;28.12;100380.09;5019753;28;1199;-31
2022/12/13 06:42:24;;;;;;;;;;;;;;;27.72;27.91;100385.81;5019994;28;1267;-32
2022/12/13 06:44:51;;;;;;;;;;;;;;;26.98;29.21;100385.03;5019987;28;1180;-34
2022/12/13 06:47:16;;;;;;;;;;;;;;;26.98;29.30;100387.75;5012947;28;947;-29
2022/12/13 06:49:42;;;;;;;;;;;;;;;27.21;29.13;100390.31;5012726;28;1172;-29
2022/12/13 06:52:08;;;;;;;;;;;;;;;27.44;28.66;100394.69;5019405;28;1239;-32
2022/12/13 06:54:34;;;;;;;;;;;;;;;27.55;28.30;100387.06;5015698;28;1914;-31
2022/12/13 06:56:59;;;;;;;;;;;;;;;27.80;27.79;100392.91;5011881;28;879;-29
2022/12/13 06:59:24;;;;;;;;;;;;;;;27.46;28.55;100406.13;5011571;28;910;-29
2022/12/13 07:01:50;;;;;;;;;;;;;;;27.12;29.00;100408.50;5018897;28;1156;-30
2022/12/13 07:04:15;;;;;;;;;;;;;;;27.25;29.01;100412.34;5018471;28;1180;-28
2022/12/13 07:06:40;;;;;;;;;;;;;;;27.29;29.06;100404.72;5018922;28;1250;-31
2022/12/13 07:09:05;;;;;;;;;;;;;;;27.52;29.06;100407.22;5017955;28;1398;-31
2022/12/13 07:11:31;;;;;;;;;;;;;;;27.73;28.31;100409.09;5016395;28;1033;-29
2022/12/13 07:13:57;;;;;;;;;;;;;;;27.88;27.92;100410.84;5017211;28;1902;-30
2022/12/13 07:16:22;;;;;;;;;;;;;;;27.70;28.19;100416.75;5018679;28;1195;-30
2022/12/13 07:18:52;;;;;;;;;;;;;;;27.14;28.99;100417.22;5018587;28;1172;-30
2022/12/13 07:21:18;;;;;;;;;;;;;;;27.12;29.33;100416.59;5019034;28;1206;-29
2022/12/13 07:23:43;;;;;;;;;;;;;;;27.40;28.94;100420.41;5018282;28;867;-29
2022/12/13 07:26:08;;;;;;;;;;;;;;;27.59;28.47;100423.50;5018471;28;1097;-32
2022/12/13 07:28:34;;;;;;;;;;;;;;;27.73;28.08;100438.81;5018516;28;1155;-29
2022/12/13 07:31:01;;;;;;;;;;;;;;;28.01;27.81;100439.84;5018335;28;1227;-29
2022/12/13 07:33:28;;;;;;;;;;;;;;;27.92;27.91;100432.91;5010970;28;1973;-29
2022/12/13 07:35:58;;;;;;;;;;;;;;;27.34;29.01;100440.09;5001977;28;1160;-31
2022/12/13 07:38:23;;;;;;;;;;;;;;;27.29;28.95;100456.03;5018824;28;1117;-30
2022/12/13 07:40:49;;;;;;;;;;;;;;;27.54;28.84;100452.94;5017951;28;1105;-33
2022/12/13 07:43:14;;;;;;;;;;;;;;;27.64;28.36;100456.16;5017410;28;1180;-29
2022/12/13 07:45:40;;;;;;;;;;;;;;;27.90;27.89;100467.41;5017702;28;1174;-29
2022/12/13 07:48:05;;;;;;;;;;;;;;;28.16;27.60;100461.38;5016271;28;1104;-29
2022/12/13 07:50:31;;;;;;;;;;;;;;;27.92;27.91;100462.66;5017789;28;1089;-29
2022/12/13 07:52:56;;;;;;;;;;;;;;;27.33;28.65;100473.50;5018034;28;1965;-30
2022/12/13 07:55:21;;;;;;;;;;;;;;;27.29;28.47;100473.06;5017517;28;1168;-28
2022/12/13 07:57:47;;;;;;;;;;;;;;;27.42;28.53;100475.06;5017698;28;1136;-31
2022/12/13 08:00:12;;;;;;;;;;;;;;;27.51;28.48;100476.63;5017165;28;942;-32
2022/12/13 08:02:38;;;;;;;;;;;;;;;27.73;27.70;100483.91;5018083;28;1104;-30
2022/12/13 08:05:04;;;;;;;;;;;;;;;28.03;27.15;100485.63;5018147;28;1188;-29
2022/12/13 08:07:29;;;;;;;;;;;;;;;27.99;27.24;100496.00;5017667;28;1145;-29
2022/12/13 08:09:55;;;;;;;;;;;;;;;27.25;28.28;100494.22;5016981;28;985;-29
2022/12/13 08:12:20;;;;;;;;;;;;;;;27.33;28.00;100498.66;5005237;28;1227;-33
2022/12/13 08:14:45;;;;;;;;;;;;;;;27.52;27.85;100499.06;5017866;28;1906;-29
2022/12/13 08:17:10;;;;;;;;;;;;;;;27.65;27.98;100495.66;5017033;28;1223;-32
2022/12/13 08:19:36;;;;;;;;;;;;;;;27.90;27.40;100500.69;5004984;28;1280;-31
2022/12/13 08:22:01;;;;;;;;;;;;;;;28.44;26.47;100500.31;5017319;28;1188;-30
2022/12/13 08:24:27;;;;;;;;;;;;;;;28.01;27.12;100499.31;5006929;28;1109;-30
2022/12/13 08:26:52;;;;;;;;;;;;;;;27.38;27.77;100514.28;5017205;28;1120;-29
2022/12/13 08:29:17;;;;;;;;;;;;;;;27.42;27.84;100518.28;5017569;28;1093;-30
2022/12/13 08:31:43;;;;;;;;;;;;;;;27.62;27.78;100523.06;5017348;28;1140;-32
2022/12/13 08:34:08;;;;;;;;;;;;;;;27.91;26.72;100531.28;5017430;28;1954;-31
2022/12/13 08:36:33;;;;;;;;;;;;;;;28.32;26.70;100510.81;5007932;28;933;-29
2022/12/13 08:39:01;;;;;;;;;;;;;;;27.65;27.61;100514.56;5017316;28;1167;-33
2022/12/13 08:41:26;;;;;;;;;;;;;;;27.11;28.68;100514.00;4998288;28;1144;-32
2022/12/13 08:43:52;;;;;;;;;;;;;;;27.16;28.54;100510.72;4997913;28;1105;-30
2022/12/13 08:46:17;;;;;;;;;;;;;;;27.42;28.15;100499.38;4997742;28;1180;-29
2022/12/13 08:48:42;;;;;;;;;;;;;;;27.57;27.70;100501.19;5003510;28;1109;-32
2022/12/13 08:51:10;;;;;;;;;;;;;;;27.70;27.36;100512.16;5016463;28;1145;-29
2022/12/13 08:53:35;;;;;;;;;;;;;;;28.25;25.85;100497.22;5016600;28;1898;-29
2022/12/13 08:56:01;;;;;;;;;;;;;;;28.52;25.66;100518.25;5017454;28;1156;-28
2022/12/13 08:58:26;;;;;;;;;;;;;;;28.14;25.66;100498.63;5016759;28;1128;-32
2022/12/13 09:00:52;;;;;;;;;;;;;;;28.18;24.92;100517.97;5015850;28;927;-29
2022/12/13 09:03:17;;;;;;;;;;;;;;;28.14;25.12;100522.97;5004937;28;1171;-29
2022/12/13 09:05:42;;;;;;;;;;;;;;;27.29;25.77;100537.88;5014991;28;1160;-33
2022/12/13 09:08:08;;;;;;;;;;;;;;;26.75;26.95;100534.44;5016253;28;1195;-30
2022/12/13 09:10:33;;;;;;;;;;;;;;;26.83;26.75;100538.91;5016594;28;1116;-29
2022/12/13 09:13:00;;;;;;;;;;;;;;;27.05;26.69;100530.94;5015863;28;1894;-28
2022/12/13 09:15:25;;;;;;;;;;;;;;;27.35;26.18;100541.69;5016628;28;1128;-29
2022/12/13 09:17:51;;;;;;;;;;;;;;;27.70;26.03;100530.25;5016200;28;1125;-33
2022/12/13 09:20:16;;;;;;;;;;;;;;;28.17;25.39;100529.81;5016403;28;1184;-29
2022/12/13 09:22:42;;;;;;;;;;;;;;;27.91;25.58;100529.41;5016573;28;1175;-31
2022/12/13 09:25:08;;;;;;;;;;;;;;;27.29;26.78;100516.28;5016215;28;896;-30
2022/12/13 09:27:33;;;;;;;;;;;;;;;27.45;26.49;100517.91;5016264;28;1112;-30
2022/12/13 09:29:59;;;;;;;;;;;;;;;27.59;25.87;100518.06;5005052;28;2359;-28
2022/12/13 09:32:26;;;;;;;;;;;;;;;27.90;25.27;100526.88;5015696;28;1132;-32
2022/12/13 09:34:51;;;;;;;;;;;;;;;28.18;25.20;100518.81;5015643;28;1906;-30
2022/12/13 09:37:16;;;;;;;;;;;;;;;27.62;25.64;100514.97;5015970;28;918;-32
2022/12/13 09:39:41;;;;;;;;;;;;;;;27.12;26.70;100505.72;5015242;28;970;-30
2022/12/13 09:42:14;;;;;;;;;;;;;;;27.20;26.53;100507.44;5015352;28;1061;-29
2022/12/13 09:44:40;;;;;;;;;;;;;;;27.44;26.07;100518.09;5016073;28;1077;-31
2022/12/13 09:47:08;;;;;;;;;;;;;;;27.61;25.79;100513.31;5014804;28;1094;-33
2022/12/13 09:49:37;;;;;;;;;;;;;;;28.08;25.18;100502.09;5014385;28;963;-29
2022/12/13 09:52:04;;;;;;;;;;;;;;;27.64;25.45;100504.81;5014362;28;1173;-29
2022/12/13 09:54:30;;;;;;;;;;;;;;;27.28;26.45;100503.78;5016027;28;1895;-30
2022/12/13 09:56:55;;;;;;;;;;;;;;;27.31;26.26;100494.50;5015715;28;1096;-29
2022/12/13 09:59:30;;;;;;;;;;;;;;;27.59;26.10;100491.84;5014640;28;2477;-28
2022/12/13 10:01:56;;;;;;;;;;;;;;;28.12;25.13;100487.16;5010574;28;1167;-29
2022/12/13 10:04:21;;;;;;;;;;;;;;;28.12;24.97;100484.44;5014437;28;1124;-30
2022/12/13 10:06:50;;;;;;;;;;;;;;;27.22;26.41;100497.31;5018356;28;1180;-30
2022/12/13 10:09:15;;;;;;;;;;;;;;;27.33;26.35;100487.00;5019348;28;1192;-29
2022/12/13 10:11:51;;;;;;;;;;;;;;;27.61;25.79;100492.50;5018070;28;1179;-27
2022/12/13 10:14:25;;;;;;;;;;;;;;;28.12;25.16;100479.03;5019752;28;1903;-29
2022/12/13 10:16:50;;;;;;;;;;;;;;;28.08;25.23;100488.56;5018729;28;1168;-31
2022/12/13 10:19:19;;;;;;;;;;;;;;;27.67;25.58;100492.75;5018386;28;1156;-32
2022/12/13 10:21:44;;;;;;;;;;;;;;;27.24;26.39;100492.53;5019956;28;1268;-29
2022/12/13 10:24:09;;;;;;;;;;;;;;;27.43;25.98;100484.84;5014903;28;1108;-28
2022/12/13 10:26:35;;;;;;;;;;;;;;;27.77;25.70;100495.19;5020111;28;1108;-28
2022/12/13 10:29:03;;;;;;;;;;;;;;;28.30;24.63;100485.81;5019725;28;1207;-28
2022/12/13 10:31:29;;;;;;;;;;;;;;;28.04;25.15;100479.19;5006894;28;2585;-29
2022/12/13 10:33:54;;;;;;;;;;;;;;;27.39;26.13;100480.88;5019272;28;1902;-29
2022/12/13 10:36:37;;;;;;;;;;;;;;;27.36;26.37;100475.84;5013857;28;1184;-28
2022/12/13 10:39:03;;;;;;;;;;;;;;;27.85;25.96;100473.41;5012478;28;1192;-31
2022/12/13 10:41:28;;;;;;;;;;;;;;;28.18;25.43;100463.88;5019402;28;1109;-29
2022/12/13 10:44:07;;;;;;;;;;;;;;;28.08;25.70;100456.97;5018873;28;1109;-27
2022/12/13 10:46:32;;;;;;;;;;;;;;;27.41;26.94;100448.25;5019406;28;1101;-28
2022/12/13 10:48:58;;;;;;;;;;;;;;;27.37;26.72;100447.81;5019355;28;890;-28
2022/12/13 10:51:23;;;;;;;;;;;;;;;27.72;26.26;100447.97;5019171;28;1081;-30
2022/12/13 10:53:52;;;;;;;;;;;;;;;28.22;25.69;100432.72;5018977;28;1953;-29
2022/12/13 10:56:17;;;;;;;;;;;;;;;28.47;25.50;100438.53;5019158;28;1192;-29
2022/12/13 10:58:43;;;;;;;;;;;;;;;27.61;26.77;100435.75;5017726;28;1196;-30
2022/12/13 11:01:18;;;;;;;;;;;;;;;27.43;26.94;100432.66;5016426;28;2532;-30
2022/12/13 11:04:00;;;;;;;;;;;;;;;27.63;26.78;100436.41;5018902;28;1168;-31
2022/12/13 11:06:26;;;;;;;;;;;;;;;28.15;25.92;100442.66;5019238;28;1144;-32
2022/12/13 11:08:51;;;;;;;;;;;;;;;28.04;25.98;100441.34;5019320;28;1084;-28
2022/12/13 11:11:17;;;;;;;;;;;;;;;27.49;26.86;100443.53;5019209;28;1178;-30
2022/12/13 11:13:46;;;;;;;;;;;;;;;27.16;27.41;100448.63;5018849;28;1957;-32
2022/12/13 11:16:29;;;;;;;;;;;;;;;27.46;27.16;100445.81;5017267;28;1199;-30
2022/12/13 11:18:58;;;;;;;;;;;;;;;28.19;25.52;100444.78;5017297;28;1208;-29
2022/12/13 11:21:25;;;;;;;;;;;;;;;28.24;25.89;100449.59;5019015;28;1140;-27
2022/12/13 11:23:50;;;;;;;;;;;;;;;27.95;26.06;100455.00;5017224;28;1097;-28
2022/12/13 11:26:17;;;;;;;;;;;;;;;27.35;27.31;100457.94;5018013;28;1140;-29
2022/12/13 11:28:48;;;;;;;;;;;;;;;27.66;27.16;100455.97;5019165;28;1104;-29
2022/12/13 11:31:16;;;;;;;;;;;;;;;28.34;25.69;100457.38;5005384;28;1766;-29
2022/12/13 11:34:08;;;;;;;;;;;;;;;28.42;25.70;100464.50;5018717;28;1922;-29
2022/12/13 11:36:49;;;;;;;;;;;;;;;27.73;26.60;100462.28;5003856;28;1525;-28
2022/12/13 11:39:23;;;;;;;;;;;;;;;27.49;27.18;100465.16;5017323;28;1157;-34
2022/12/13 11:41:54;;;;;;;;;;;;;;;27.79;26.67;100464.22;5016886;28;2609;-31
2022/12/13 11:44:34;;;;;;;;;;;;;;;28.53;25.64;100469.34;5016798;28;1101;-29
2022/12/13 11:46:59;;;;;;;;;;;;;;;28.69;25.33;100470.06;5016921;28;1141;-28
2022/12/13 11:49:36;;;;;;;;;;;;;;;27.98;26.12;100465.41;5008351;28;910;-27
2022/12/13 11:52:04;;;;;;;;;;;;;;;27.59;26.86;100462.13;5015064;28;1090;-29
2022/12/13 11:54:45;;;;;;;;;;;;;;;27.85;26.70;100462.59;5016956;28;1898;-27
2022/12/13 11:57:29;;;;;;;;;;;;;;;28.67;25.07;100454.03;5012703;28;1208;-30
2022/12/13 11:59:56;;;;;;;;;;;;;;;28.95;25.03;100460.38;5004136;28;1847;-29
2022/12/13 12:02:22;;;;;;;;;;;;;;;28.15;26.03;100448.91;5015905;28;1189;-27
2022/12/13 12:04:48;;;;;;;;;;;;;;;27.80;26.46;100455.09;5018274;28;1409;-29
2022/12/13 12:07:16;;;;;;;;;;;;;;;28.03;26.04;100445.09;5016805;28;1247;-28
2022/12/13 12:09:47;;;;;;;;;;;;;;;28.81;24.92;100441.38;5017269;28;1149;-27
2022/12/13 12:12:19;;;;;;;;;;;;;;;29.11;24.77;100452.97;5016769;28;1152;-31
2022/12/13 12:14:44;;;;;;;;;;;;;;;28.20;25.42;100449.16;5005570;28;1902;-31
2022/12/13 12:17:13;;;;;;;;;;;;;;;27.86;26.04;100442.66;5017484;28;1248;-28
2022/12/13 12:19:39;;;;;;;;;;;;;;;28.01;26.01;100447.13;5018305;28;1223;-29
2022/12/13 12:22:24;;;;;;;;;;;;;;;28.82;24.55;100450.34;5016856;28;1173;-29
2022/12/13 12:24:56;;;;;;;;;;;;;;;28.93;24.63;100449.75;5004485;28;1212;-30
2022/12/13 12:27:24;;;;;;;;;;;;;;;28.43;25.01;100453.47;5016586;28;1140;-31
2022/12/13 12:29:56;;;;;;;;;;;;;;;28.08;25.55;100456.13;5016957;28;1167;-29
2022/12/13 12:32:24;;;;;;;;;;;;;;;28.29;25.76;100455.25;5018138;28;1195;-28
2022/12/13 12:34:55;;;;;;;;;;;;;;;28.92;24.63;100461.63;5004340;28;1914;-28
2022/12/13 12:37:35;;;;;;;;;;;;;;;28.72;24.92;100458.81;5017328;28;1132;-27
2022/12/13 12:40:00;;;;;;;;;;;;;;;28.42;25.32;100469.91;5003817;28;1122;-27
2022/12/13 12:42:46;;;;;;;;;;;;;;;28.14;25.48;100477.00;5017743;28;1184;-27
2022/12/13 12:45:14;;;;;;;;;;;;;;;28.35;25.33;100470.72;5005602;28;1175;-31
2022/12/13 12:47:52;;;;;;;;;;;;;;;29.01;24.36;100480.44;5017650;28;1160;-28
2022/12/13 12:50:17;;;;;;;;;;;;;;;29.14;24.02;100480.47;5017466;28;1149;-28
2022/12/13 12:52:46;;;;;;;;;;;;;;;28.29;25.52;100482.28;5017692;28;1191;-31
2022/12/13 12:55:20;;;;;;;;;;;;;;;27.77;26.24;100478.97;5017207;28;1910;-32
2022/12/13 12:57:45;;;;;;;;;;;;;;;27.92;25.85;100495.94;5017352;28;1207;-28